createdAt,value
2023-03-13T00:01:42.777Z,10.70
2023-03-13T00:04:10.353Z,6.88
2023-03-13T00:06:38.917Z,7.35
2023-03-13T00:09:08.431Z,14.18
2023-03-13T00:11:35.670Z,9.70
2023-03-13T00:14:04.492Z,7.00
2023-03-13T00:16:32.204Z,8.35
2023-03-13T00:18:59.923Z,10.73
2023-03-13T00:21:29.439Z,9.55
2023-03-13T00:23:58.215Z,6.45
2023-03-13T00:26:27.651Z,12.98
2023-03-13T00:28:55.076Z,11.77
2023-03-13T00:31:22.472Z,12.20
2023-03-13T00:33:53.205Z,10.43
2023-03-13T00:36:23.875Z,9.27
2023-03-13T00:38:52.178Z,9.05
2023-03-13T00:41:24.620Z,6.60
2023-03-13T00:43:52.350Z,8.48
2023-03-13T00:46:21.782Z,6.50
2023-03-13T00:48:49.259Z,9.27
2023-03-13T00:51:19.328Z,7.63
2023-03-13T00:53:46.746Z,6.90
2023-03-13T00:56:16.505Z,8.00
2023-03-13T00:58:45.223Z,6.82
2023-03-13T01:01:26.985Z,8.38
2023-03-13T01:03:57.006Z,5.90
2023-03-13T01:06:26.719Z,6.40
2023-03-13T01:08:54.349Z,4.50
2023-03-13T01:11:27.239Z,5.68
2023-03-13T01:13:57.139Z,9.75
2023-03-13T01:16:25.936Z,5.40
2023-03-13T01:18:55.199Z,7.95
2023-03-13T01:21:24.302Z,9.23
2023-03-13T01:23:52.514Z,6.25
2023-03-13T01:26:20.343Z,7.32
2023-03-13T01:28:47.707Z,7.68
2023-03-13T01:31:19.676Z,11.00
2023-03-13T01:33:47.856Z,11.70
2023-03-13T01:36:15.581Z,10.05
2023-03-13T01:38:42.704Z,11.05
2023-03-13T01:41:12.247Z,10.93
2023-03-13T01:43:39.914Z,9.75
2023-03-13T01:46:21.511Z,6.57
2023-03-13T01:49:13.101Z,13.20
2023-03-13T01:51:53.838Z,9.98
2023-03-13T01:54:45.723Z,10.00
2023-03-13T01:57:24.262Z,9.73
2023-03-13T02:00:00.759Z,8.23
2023-03-13T02:02:29.243Z,7.57
2023-03-13T02:05:01.127Z,7.10
2023-03-13T02:07:40.181Z,10.45
2023-03-13T02:10:08.848Z,9.18
2023-03-13T02:12:39.315Z,6.25
2023-03-13T02:15:18.870Z,4.88
2023-03-13T02:17:47.108Z,6.18
2023-03-13T02:20:15.821Z,7.60
2023-03-13T02:23:20.200Z,6.53
2023-03-13T02:25:49.888Z,8.85
2023-03-13T02:28:21.486Z,8.30
2023-03-13T02:30:51.295Z,8.68
2023-03-13T02:33:19.843Z,5.35
2023-03-13T02:35:48.381Z,7.97
2023-03-13T02:38:22.200Z,5.65
2023-03-13T02:40:51.212Z,5.90
2023-03-13T02:43:29.510Z,4.10
2023-03-13T02:46:11.320Z,3.28
2023-03-13T02:48:39.945Z,4.32
2023-03-13T02:51:31.728Z,5.43
2023-03-13T02:54:04.181Z,6.72
2023-03-13T02:56:33.508Z,6.50
2023-03-13T02:59:00.653Z,5.43
2023-03-13T03:01:28.010Z,5.30
2023-03-13T03:03:55.404Z,10.07
2023-03-13T03:06:22.811Z,9.88
2023-03-13T03:08:49.958Z,10.55
2023-03-13T03:11:17.453Z,5.28
2023-03-13T03:13:44.494Z,11.02
2023-03-13T03:16:15.286Z,9.43
2023-03-13T03:18:42.739Z,9.75
2023-03-13T03:21:10.097Z,8.80
2023-03-13T03:23:37.776Z,9.07
2023-03-13T03:26:06.480Z,8.75
2023-03-13T03:28:33.741Z,9.40
2023-03-13T03:31:12.652Z,10.07
2023-03-13T03:33:40.826Z,6.80
2023-03-13T03:36:17.156Z,18.08
2023-03-13T03:41:16.352Z,10.15
2023-03-13T03:43:43.820Z,7.28
2023-03-13T03:46:11.427Z,10.07
2023-03-13T03:48:38.499Z,10.38
2023-03-13T03:51:06.413Z,10.27
2023-03-13T03:53:34.313Z,6.80
2023-03-13T03:56:02.166Z,12.18
2023-03-13T03:58:29.219Z,10.82
2023-03-13T04:00:58.151Z,8.85
2023-03-13T04:03:26.035Z,13.57
2023-03-13T04:05:53.428Z,8.48
2023-03-13T04:08:20.899Z,7.13
2023-03-13T04:10:47.970Z,10.43
2023-03-13T04:13:15.285Z,8.02
2023-03-13T04:15:42.742Z,20.38
2023-03-13T04:18:10.066Z,9.82
2023-03-13T04:20:37.690Z,15.98
2023-03-13T04:23:04.775Z,11.57
2023-03-13T04:25:31.693Z,12.50
2023-03-13T04:27:58.760Z,20.63
2023-03-13T04:30:26.146Z,11.68
2023-03-13T04:32:53.305Z,11.82
2023-03-13T04:35:20.539Z,10.95
2023-03-13T04:37:47.837Z,11.15
2023-03-13T04:40:15.134Z,7.97
2023-03-13T04:42:42.655Z,13.70
2023-03-13T04:45:12.427Z,16.10
2023-03-13T04:47:39.748Z,18.23
2023-03-13T04:50:07.326Z,18.13
2023-03-13T04:52:35.210Z,17.15
2023-03-13T04:55:02.533Z,17.83
2023-03-13T04:57:29.579Z,22.70
2023-03-13T04:59:56.955Z,21.80
2023-03-13T05:02:24.297Z,22.73
2023-03-13T05:04:52.367Z,16.88
2023-03-13T05:07:19.774Z,21.40
2023-03-13T05:09:46.911Z,21.95
2023-03-13T05:12:14.546Z,18.77
2023-03-13T05:14:41.562Z,20.52
2023-03-13T05:17:08.602Z,19.48
2023-03-13T05:19:36.012Z,20.25
2023-03-13T05:22:03.029Z,21.73
2023-03-13T05:24:30.308Z,19.92
2023-03-13T05:26:57.672Z,17.80
2023-03-13T05:29:25.043Z,20.25
2023-03-13T05:31:51.932Z,25.70
2023-03-13T05:34:19.330Z,35.42
2023-03-13T05:36:46.646Z,32.83
2023-03-13T05:39:13.724Z,31.42
2023-03-13T05:41:40.812Z,41.10
2023-03-13T05:44:07.881Z,22.25
2023-03-13T05:46:35.411Z,36.67
2023-03-13T05:49:02.828Z,51.10
2023-03-13T05:51:31.206Z,29.20
2023-03-13T05:53:58.550Z,38.10
2023-03-13T05:56:25.597Z,18.27
2023-03-13T05:58:52.924Z,25.02
2023-03-13T06:01:20.315Z,32.28
2023-03-13T06:03:47.511Z,28.85
2023-03-13T06:06:14.912Z,39.45
2023-03-13T06:08:42.298Z,50.17
2023-03-13T06:11:09.336Z,40.38
2023-03-13T06:13:36.389Z,33.90
2023-03-13T06:16:03.923Z,36.47
2023-03-13T06:18:31.358Z,27.60
2023-03-13T06:21:00.784Z,38.95
2023-03-13T06:23:28.348Z,32.28
2023-03-13T06:25:55.861Z,39.60
2023-03-13T06:28:22.865Z,37.75
2023-03-13T06:30:50.060Z,31.77
2023-03-13T06:33:17.376Z,20.50
2023-03-13T06:35:55.718Z,25.08
2023-03-13T06:38:25.243Z,34.33
2023-03-13T06:40:53.581Z,31.25
2023-03-13T06:43:21.337Z,43.25
2023-03-13T06:45:48.712Z,32.78
2023-03-13T06:48:16.146Z,29.05
2023-03-13T06:50:43.508Z,82.20
2023-03-13T06:53:20.070Z,32.50
2023-03-13T06:55:49.231Z,31.92
2023-03-13T06:58:31.182Z,27.73
2023-03-13T07:01:00.133Z,29.23
2023-03-13T07:03:27.671Z,48.10
2023-03-13T07:05:59.194Z,47.17
2023-03-13T07:08:27.173Z,56.55
2023-03-13T07:10:58.054Z,50.45
2023-03-13T07:13:25.113Z,51.08
2023-03-13T07:15:52.535Z,46.25
2023-03-13T07:18:19.975Z,45.97
2023-03-13T07:20:56.796Z,55.67
2023-03-13T07:23:24.630Z,53.13
2023-03-13T07:26:15.812Z,77.25
2023-03-13T07:28:43.330Z,74.40
2023-03-13T07:31:15.881Z,97.43
2023-03-13T07:33:44.900Z,55.30
2023-03-13T07:36:12.942Z,46.67
2023-03-13T07:38:40.228Z,61.35
2023-03-13T07:41:07.495Z,45.42
2023-03-13T07:43:34.684Z,50.17
2023-03-13T07:46:03.396Z,59.45
2023-03-13T07:48:33.561Z,56.15
2023-03-13T07:51:01.313Z,41.17
2023-03-13T07:53:31.356Z,59.72
2023-03-13T07:56:00.385Z,66.78
2023-03-13T07:58:32.491Z,59.25
2023-03-13T08:00:59.943Z,65.25
2023-03-13T08:03:27.789Z,49.08
2023-03-13T08:06:00.647Z,70.00
2023-03-13T08:08:28.478Z,61.80
2023-03-13T08:11:02.125Z,45.95
2023-03-13T08:13:29.902Z,54.03
2023-03-13T08:16:23.878Z,51.88
2023-03-13T08:18:53.594Z,49.70
2023-03-13T08:21:22.655Z,40.47
2023-03-13T08:23:52.857Z,36.78
2023-03-13T08:26:21.626Z,34.78
2023-03-13T08:28:53.480Z,28.80
2023-03-13T08:31:30.828Z,48.47
2023-03-13T08:33:58.631Z,57.42
2023-03-13T08:36:34.762Z,48.53
2023-03-13T08:43:58.686Z,41.38
2023-03-13T08:46:26.317Z,51.45
2023-03-13T08:48:55.168Z,50.40
2023-03-13T08:51:24.845Z,51.13
2023-03-13T08:53:53.703Z,33.42
2023-03-13T08:56:22.906Z,42.83
2023-03-13T08:58:55.691Z,58.40
2023-03-13T09:01:23.922Z,57.90
2023-03-13T09:03:51.696Z,34.15
2023-03-13T09:06:19.296Z,38.28
2023-03-13T09:08:46.685Z,47.47
2023-03-13T09:11:15.472Z,34.58
2023-03-13T09:13:44.797Z,32.97
2023-03-13T09:16:17.783Z,49.80
2023-03-13T09:18:45.694Z,43.05
2023-03-13T09:21:15.278Z,25.67
2023-03-13T09:23:42.738Z,45.53
2023-03-13T09:26:10.407Z,59.40
2023-03-13T09:28:37.895Z,34.35
2023-03-13T09:31:21.025Z,44.65
2023-03-13T09:33:50.252Z,79.43
2023-03-13T09:36:20.832Z,57.53
2023-03-13T09:38:49.430Z,47.33
2023-03-13T09:41:27.561Z,44.65
2023-03-13T09:44:22.428Z,26.05
2023-03-13T09:47:01.623Z,33.35
2023-03-13T09:49:37.089Z,37.63
2023-03-13T09:52:22.897Z,26.58
2023-03-13T09:54:57.458Z,34.90
2023-03-13T09:57:48.536Z,43.05
2023-03-13T10:00:23.553Z,47.63
2023-03-13T10:03:17.757Z,29.42
2023-03-13T10:06:22.024Z,22.52
2023-03-13T10:08:49.341Z,32.10
2023-03-13T10:11:32.213Z,33.22
2023-03-13T10:14:35.055Z,32.17
2023-03-13T10:17:16.136Z,58.50
2023-03-13T10:19:43.978Z,56.05
2023-03-13T10:22:17.229Z,47.13
2023-03-13T10:24:54.592Z,96.93
2023-03-13T10:27:22.173Z,41.92
2023-03-13T10:29:49.614Z,68.05
2023-03-13T10:32:17.516Z,48.08
2023-03-13T10:35:01.576Z,75.38
2023-03-13T10:37:32.005Z,63.63
2023-03-13T10:40:23.202Z,50.58
2023-03-13T10:42:51.954Z,49.15
2023-03-13T10:45:25.191Z,61.53
2023-03-13T10:48:00.279Z,61.47
2023-03-13T10:50:32.550Z,70.20
2023-03-13T10:53:20.780Z,73.18
2023-03-13T10:55:52.606Z,72.72
2023-03-13T10:58:35.433Z,44.97
2023-03-13T11:01:40.815Z,40.53
2023-03-13T11:04:32.996Z,58.30
2023-03-13T11:07:20.880Z,64.03
2023-03-13T11:10:04.757Z,57.90
2023-03-13T11:12:36.087Z,42.05
2023-03-13T11:15:05.837Z,59.55
2023-03-13T11:20:29.034Z,53.80
2023-03-13T11:23:20.187Z,43.80
2023-03-13T11:25:56.945Z,34.70
2023-03-13T11:28:38.829Z,48.63
2023-03-13T11:31:12.090Z,36.80
2023-03-13T11:33:43.443Z,43.83
2023-03-13T11:36:43.236Z,52.47
2023-03-13T11:39:50.667Z,60.08
2023-03-13T11:42:46.531Z,37.10
2023-03-13T11:45:14.239Z,54.08
2023-03-13T11:48:13.921Z,30.58
2023-03-13T11:50:55.530Z,54.75
2023-03-13T11:53:40.192Z,62.97
2023-03-13T11:56:13.685Z,39.35
2023-03-13T11:58:44.421Z,55.60
2023-03-13T12:01:36.581Z,44.10
2023-03-13T12:04:25.638Z,61.97
2023-03-13T12:07:29.011Z,72.28
2023-03-13T12:10:02.798Z,82.80
2023-03-13T12:12:41.981Z,76.75
2023-03-13T12:15:19.182Z,78.30
2023-03-13T12:18:13.848Z,67.43
2023-03-13T12:20:48.111Z,81.03
2023-03-13T12:23:20.990Z,22.73
2023-03-13T12:25:53.595Z,53.83
2023-03-13T12:28:27.100Z,44.85
2023-03-13T12:31:02.245Z,74.18
2023-03-13T12:33:38.360Z,59.40
2023-03-13T12:36:31.037Z,81.57
2023-03-13T12:39:19.770Z,67.10
2023-03-13T12:41:59.271Z,48.53
2023-03-13T12:44:26.990Z,64.05
2023-03-13T12:47:28.008Z,45.88
2023-03-13T12:50:05.032Z,52.45
2023-03-13T12:52:48.546Z,53.78
2023-03-13T12:55:41.196Z,50.95
2023-03-13T12:58:08.882Z,46.15
2023-03-13T13:00:40.081Z,54.72
2023-03-13T13:03:19.537Z,58.15
2023-03-13T13:06:05.308Z,63.67
2023-03-13T13:08:40.273Z,44.72
2023-03-13T13:11:44.434Z,49.83
2023-03-13T13:14:17.736Z,66.80
2023-03-13T13:16:51.726Z,47.65
2023-03-13T13:19:27.070Z,97.90
2023-03-13T13:22:33.575Z,83.22
2023-03-13T13:25:01.678Z,90.30
2023-03-13T13:27:36.186Z,74.68
2023-03-13T13:30:27.029Z,68.07
2023-03-13T13:32:55.968Z,47.45
2023-03-13T13:35:23.375Z,51.00
2023-03-13T13:37:50.817Z,45.88
2023-03-13T13:40:19.636Z,40.70
2023-03-13T13:42:58.744Z,47.90
2023-03-13T13:45:31.493Z,61.72
2023-03-13T13:48:15.334Z,70.45
2023-03-13T13:51:11.453Z,46.83
2023-03-13T13:53:48.036Z,43.35
2023-03-13T13:56:40.624Z,78.43
2023-03-13T13:59:25.082Z,35.53
2023-03-13T14:02:15.227Z,45.85
2023-03-13T14:05:01.159Z,59.83
2023-03-13T14:07:37.436Z,47.50
2023-03-13T14:10:26.709Z,30.75
2023-03-13T14:12:56.564Z,34.33
2023-03-13T14:15:35.156Z,52.92
2023-03-13T14:18:22.806Z,39.47
2023-03-13T14:21:24.158Z,40.15
2023-03-13T14:23:51.902Z,30.63
2023-03-13T14:26:25.800Z,45.33
2023-03-13T14:28:56.087Z,66.40
2023-03-13T14:31:25.625Z,41.83
2023-03-13T14:33:53.438Z,33.05
2023-03-13T14:36:20.987Z,42.30
2023-03-13T14:38:57.068Z,23.60
2023-03-13T14:43:55.846Z,26.58
2023-03-13T14:46:23.507Z,23.73
2023-03-13T14:48:51.019Z,23.23
2023-03-13T14:51:21.646Z,29.63
2023-03-13T14:54:02.314Z,13.60
2023-03-13T14:56:38.203Z,40.30
2023-03-13T14:59:17.231Z,30.38
2023-03-13T15:01:44.963Z,55.67
2023-03-13T15:04:12.546Z,29.00
2023-03-13T15:06:39.908Z,35.75
2023-03-13T15:09:24.049Z,39.13
2023-03-13T15:12:01.494Z,46.45
2023-03-13T15:14:48.968Z,24.63
2023-03-13T15:17:28.790Z,22.25
2023-03-13T15:19:57.475Z,30.38
2023-03-13T15:22:30.639Z,21.30
2023-03-13T15:25:07.232Z,28.85
2023-03-13T15:27:35.346Z,47.45
2023-03-13T15:30:02.842Z,20.70
2023-03-13T15:32:34.719Z,31.20
2023-03-13T15:35:02.253Z,22.40
2023-03-13T15:37:32.280Z,19.75
2023-03-13T15:42:26.637Z,23.35
2023-03-13T15:44:53.662Z,28.63
2023-03-13T15:47:22.260Z,63.70
2023-03-13T15:49:49.875Z,42.90
2023-03-13T15:52:20.176Z,68.93
2023-03-13T15:54:47.593Z,38.25
2023-03-13T15:57:23.283Z,60.22
2023-03-13T15:59:51.069Z,36.53
2023-03-13T16:02:23.516Z,54.55
2023-03-13T16:04:51.445Z,59.70
2023-03-13T16:07:21.014Z,28.00
2023-03-13T16:09:48.764Z,48.85
2023-03-13T16:12:17.286Z,40.70
2023-03-13T16:14:44.615Z,35.75
2023-03-13T16:17:18.434Z,26.65
2023-03-13T16:19:46.481Z,28.10
2023-03-13T16:22:13.813Z,50.17
2023-03-13T16:24:41.387Z,86.45
2023-03-13T16:27:21.100Z,24.55
2023-03-13T16:29:48.467Z,55.03
2023-03-13T16:32:17.218Z,66.03
2023-03-13T16:34:44.612Z,37.55
2023-03-13T16:37:17.523Z,44.45
2023-03-13T16:39:45.443Z,52.53
2023-03-13T16:42:12.864Z,49.60
2023-03-13T16:44:40.342Z,24.15
2023-03-13T16:47:35.587Z,30.75
2023-03-13T16:50:06.969Z,37.63
2023-03-13T16:52:34.906Z,34.60
2023-03-13T16:55:02.188Z,30.63
2023-03-13T16:57:29.609Z,46.80
2023-03-13T16:59:56.641Z,34.08
2023-03-13T17:02:23.600Z,15.43
2023-03-13T17:04:50.700Z,35.13
2023-03-13T17:07:23.935Z,17.05
2023-03-13T17:09:51.869Z,17.55
2023-03-13T17:12:19.713Z,34.30
2023-03-13T17:14:47.270Z,37.08
2023-03-13T17:17:20.141Z,45.33
2023-03-13T17:19:47.631Z,18.15
2023-03-13T17:22:16.796Z,63.85
2023-03-13T17:24:45.120Z,51.08
2023-03-13T17:27:13.510Z,41.90
2023-03-13T17:29:40.806Z,50.17
2023-03-13T17:32:09.300Z,20.38
2023-03-13T17:34:36.587Z,35.58
2023-03-13T17:37:06.203Z,15.68
2023-03-13T17:39:33.286Z,20.13
2023-03-13T17:42:00.570Z,35.80
2023-03-13T17:44:27.951Z,28.17
2023-03-13T17:46:55.337Z,18.67
2023-03-13T17:49:22.343Z,16.25
2023-03-13T17:51:51.351Z,14.93
2023-03-13T17:54:19.203Z,14.18
2023-03-13T17:56:46.832Z,12.43
2023-03-13T17:59:16.007Z,27.25
2023-03-13T18:01:43.455Z,19.88
2023-03-13T18:04:11.372Z,23.90
2023-03-13T18:06:42.500Z,17.05
2023-03-13T18:09:15.310Z,18.95
2023-03-13T18:11:42.754Z,11.95
2023-03-13T18:14:10.141Z,18.95
2023-03-13T18:16:47.531Z,15.07
2023-03-13T18:19:17.662Z,14.55
2023-03-13T18:21:45.701Z,10.88
2023-03-13T18:24:13.642Z,19.40
2023-03-13T18:26:42.513Z,21.35
2023-03-13T18:29:26.095Z,13.60
2023-03-13T18:31:55.357Z,12.77
2023-03-13T18:34:23.436Z,16.77
2023-03-13T18:36:50.639Z,11.35
2023-03-13T18:39:18.804Z,9.30
2023-03-13T18:41:46.503Z,17.40
2023-03-13T18:44:16.088Z,13.68
2023-03-13T18:46:44.883Z,9.13
2023-03-13T18:49:20.319Z,16.80
2023-03-13T18:51:52.828Z,11.52
2023-03-13T18:54:20.363Z,16.25
2023-03-13T18:56:47.873Z,9.95
2023-03-13T18:59:19.529Z,13.48
2023-03-13T19:01:49.753Z,15.40
2023-03-13T19:04:17.288Z,13.98
2023-03-13T19:06:48.290Z,13.05
2023-03-13T19:09:41.515Z,12.10
2023-03-13T19:12:05.106Z,19.00
2023-03-13T19:14:32.069Z,9.13
2023-03-13T19:16:59.155Z,11.85
2023-03-13T19:19:26.615Z,11.43
2023-03-13T19:21:56.381Z,13.02
2023-03-13T19:24:26.644Z,10.18
2023-03-13T19:26:58.853Z,15.43
2023-03-13T19:29:27.860Z,7.50
2023-03-13T19:31:55.254Z,6.22
2023-03-13T19:34:22.275Z,6.78
2023-03-13T19:36:50.371Z,13.48
2023-03-13T19:39:18.341Z,11.40
2023-03-13T19:41:47.932Z,9.15
2023-03-13T19:44:15.424Z,9.93
2023-03-13T19:46:45.077Z,6.50
2023-03-13T19:49:17.325Z,6.10
2023-03-13T19:51:45.153Z,5.85
2023-03-13T19:54:12.511Z,7.45
2023-03-13T19:56:41.498Z,11.93
2023-03-13T19:59:17.826Z,8.05
2023-03-13T20:01:45.000Z,17.88
2023-03-13T20:04:12.425Z,10.55
2023-03-13T20:06:40.795Z,8.73
2023-03-13T20:09:10.789Z,8.50
2023-03-13T20:11:37.818Z,10.25
2023-03-13T20:14:05.616Z,8.70
2023-03-13T20:16:34.482Z,6.50
2023-03-13T20:19:02.427Z,9.32
2023-03-13T20:21:32.380Z,8.02
2023-03-13T20:24:00.108Z,6.05
2023-03-13T20:26:29.046Z,11.82
2023-03-13T20:28:57.144Z,5.32
2023-03-13T20:31:30.749Z,9.00
2023-03-13T20:33:59.264Z,7.78
2023-03-13T20:36:26.902Z,12.93
2023-03-13T20:38:54.436Z,10.32
2023-03-13T20:41:24.946Z,6.80
2023-03-13T20:43:52.505Z,13.55
2023-03-13T20:46:20.111Z,7.40
2023-03-13T20:48:47.320Z,22.73
2023-03-13T20:51:14.359Z,6.53
2023-03-13T20:53:42.826Z,5.03
2023-03-13T20:56:10.966Z,6.90
2023-03-13T20:58:38.599Z,7.03
2023-03-13T21:01:07.316Z,8.57
2023-03-13T21:03:36.045Z,8.38
2023-03-13T21:06:14.769Z,7.82
2023-03-13T21:08:43.130Z,5.45
2023-03-13T21:11:21.785Z,6.57
2023-03-13T21:13:49.469Z,4.88
2023-03-13T21:16:18.514Z,8.43
2023-03-13T21:18:46.013Z,6.60
2023-03-13T21:21:17.277Z,5.57
2023-03-13T21:23:44.887Z,10.73
2023-03-13T21:26:12.774Z,5.40
2023-03-13T21:28:40.468Z,6.82
2023-03-13T21:31:13.024Z,6.95
2023-03-13T21:33:41.147Z,6.10
2023-03-13T21:36:09.238Z,4.03
2023-03-13T21:38:36.456Z,6.25
2023-03-13T21:41:15.611Z,3.65
2023-03-13T21:43:43.388Z,5.13
2023-03-13T21:46:20.927Z,16.70
2023-03-13T21:48:47.977Z,6.68
2023-03-13T21:51:15.537Z,6.57
2023-03-13T21:53:44.496Z,5.70
2023-03-13T21:56:16.639Z,10.38
2023-03-13T21:58:45.470Z,8.45
2023-03-13T22:01:13.335Z,4.85
2023-03-13T22:03:40.363Z,4.72
2023-03-13T22:06:19.487Z,7.45
2023-03-13T22:08:48.006Z,5.18
2023-03-13T22:11:15.598Z,7.03
2023-03-13T22:13:42.529Z,5.78
2023-03-13T22:16:11.502Z,4.43
2023-03-13T22:18:39.324Z,4.53
2023-03-13T22:21:06.802Z,6.05
2023-03-13T22:23:33.803Z,8.85
2023-03-13T22:26:01.111Z,10.82
2023-03-13T22:28:28.132Z,10.60
2023-03-13T22:30:55.107Z,7.97
2023-03-13T22:33:22.006Z,6.80
2023-03-13T22:35:54.605Z,10.60
2023-03-13T22:38:21.728Z,6.38
2023-03-13T22:40:56.425Z,6.57
2023-03-13T22:43:23.375Z,8.23
2023-03-13T22:45:50.358Z,10.10
2023-03-13T22:48:17.725Z,7.25
2023-03-13T22:50:45.047Z,4.68
2023-03-13T22:53:13.209Z,7.22
2023-03-13T22:55:40.073Z,10.25
2023-03-13T22:58:07.726Z,6.25
2023-03-13T23:00:34.620Z,10.80
2023-03-13T23:03:01.810Z,8.55
2023-03-13T23:05:28.735Z,11.13
2023-03-13T23:07:55.601Z,4.97
2023-03-13T23:10:22.679Z,5.53
2023-03-13T23:12:49.979Z,7.60
2023-03-13T23:15:16.866Z,3.15
2023-03-13T23:17:44.176Z,7.75
2023-03-13T23:20:13.243Z,8.00
2023-03-13T23:22:45.369Z,3.85
2023-03-13T23:25:14.093Z,4.45
2023-03-13T23:27:41.582Z,5.88
2023-03-13T23:30:12.626Z,5.72
2023-03-13T23:32:42.184Z,6.72
2023-03-13T23:35:10.911Z,4.95
2023-03-13T23:37:38.220Z,6.45
2023-03-13T23:40:16.332Z,10.07
2023-03-13T23:42:47.196Z,6.60
2023-03-13T23:45:14.380Z,4.40
2023-03-13T23:47:43.909Z,8.50
2023-03-13T23:50:12.932Z,8.68
2023-03-13T23:52:40.949Z,10.30
2023-03-13T23:55:08.467Z,13.77
2023-03-13T23:57:37.669Z,6.28
